RJSSRJAA

Guest
Details From RJSS - SENDAI
To RJAA - NARITA INTL
Flight Number -
Tags generated
Created
Modified
Stats Distance 145 nm / 268 km
Max Altitude 14,200 ft / 4,328 m
Waypoints 3
Social Downloads 2
Likes 0
Share VATSIM

Download

Looking for another format? Having issues loading an existing format? Contact us
Advertisement - Login to hide

Notes

Basic altitude profile: - Ascent Rate: 2500ft/min - Ascent Speed: 250kts - Cruise Altitude: 35000ft - Cruise Speed: 420kts - Descent Rate: 1500ft/min - Descent Speed: 250kts Options: - Use NATs: yes - Use PACOTS: yes - Use low airways: no - Use high airways: yes

Route

RJSS HERON RJAA

ID Type Via Altitude (ft/m) Position (lat/lon) Dist (leg/tot) Name
O RJSS APT - 0 / 0 38.13873 / 140.91825 - / 0 nm SENDAI
HERON FIX - 14,200 / 4,328 37.50639 / 140.66105 39 / 39 nm
O RJAA APT - 0 / 0 35.77655 / 140.38277 104 / 144 nm NARITA INTL

Altitude Profile

Advertisement - Login to hide

RJSS

Details ICAO RJSS (SDJ)
Name SENDAI
Region Japan
Timezone Asia/Tokyo (UTC+9.0)
Stats Elevation 15 ft / 5 m (AMSL)
Location 38.138700° 140.918000°
Runways 2
Magnetic Variation 8.117° W

METAR

Not found

TAF

TAF RJSS 211105Z 2112/2218 16007KT 9999 FEW020 TEMPO 2112/2114 4000 BR

Decode

Departure Runways

ID Width Length Bearing (true/mag) Surface Threshold Overrun Markings Lighting
09 148 ft / 45 m 9,853 ft / 3,003 m 82.52° / 90.64° ASPHALT 0 ft / 0 m 200 ft / 61 m APP CENTERLINE EDGE THRESHOLD MALS
12 148 ft / 45 m 3,941 ft / 1,201 m 117.78° / 125.90° ASPHALT 0 ft / 0 m 0 ft / 0 m APP EDGE THRESHOLD REIL-OMNI
27 148 ft / 45 m 9,853 ft / 3,003 m 262.54° / 270.66° ASPHALT 0 ft / 0 m 200 ft / 61 m PREC-APP CENTERLINE EDGE THRESHOLD ALSF-I TDZ
30 148 ft / 45 m 3,941 ft / 1,201 m 297.79° / 305.91° ASPHALT 0 ft / 0 m 0 ft / 0 m APP EDGE THRESHOLD REIL-OMNI

RJAA

Details ICAO RJAA (NRT)
Name NARITA INTL
Region Japan
Timezone Asia/Tokyo (UTC+9.0)
Stats Elevation 141 ft / 43 m (AMSL)
Location 35.777000° 140.382000°
Runways 2
Magnetic Variation 7.446° W

METAR

RJAA 211330Z 18008KT 9999 FEW008 26/25 Q1013 NOSIG

Decode

TAF

TAF RJAA 211107Z 2112/2218 18008KT 9999 FEW020= TAF RJBB 211105Z 2112/2218 12004KT 9999 FEW025 BECMG 2203/2206 30007KT BECMG 2209/2212 08006KT

Decode

Destination Runways

ID Width Length Bearing (true/mag) Surface Threshold Overrun Markings Lighting
16L 197 ft / 60 m 8,414 ft / 2,565 m 149.63° / 157.08° ASPHALT 0 ft / 0 m 197 ft / 60 m PREC-APP CENTERLINE EDGE THRESHOLD MALSF
16R 197 ft / 60 m 13,159 ft / 4,011 m 149.63° / 157.08° ASPHALT 0 ft / 0 m 420 ft / 128 m PREC-APP CENTERLINE EDGE THRESHOLD MALSF
34L 197 ft / 60 m 13,159 ft / 4,011 m 329.65° / 337.10° ASPHALT 0 ft / 0 m 404 ft / 123 m PREC-APP CENTERLINE EDGE THRESHOLD MALSF
34R 197 ft / 60 m 8,414 ft / 2,565 m 329.64° / 337.09° ASPHALT 197 ft / 60 m 0 ft / 0 m PREC-APP CENTERLINE EDGE THRESHOLD MALSF

Approach Navaids

Runway Type Ident Frequency Range Bearing (true/mag) Slope Elevation
16L DME ITM 110.70 MHz 18 nm / 33 km - - 145 ft / 44 m (AMSL)
16L GS ITM 110.70 MHz 10 nm / 19 km 150.23° / 157.68 ° 3.00° 141 ft / 43 m (AMSL)
16L LOC-ILS ITM 110.70 MHz 18 nm / 33 km 149.62° / 157.06 ° - 141 ft / 43 m (AMSL)
16R LOC-ILS IKF 111.50 MHz 18 nm / 33 km 149.63° / 157.07 ° - 141 ft / 43 m (AMSL)
16R DME IKF 111.50 MHz 18 nm / 33 km - - 145 ft / 44 m (AMSL)
16R GS IKF 111.50 MHz 10 nm / 19 km 150.23° / 157.68 ° 3.00° 141 ft / 43 m (AMSL)
16R IM IM - - 149.62° / 157.06 ° - 141 ft / 43 m (AMSL)
16R MM MM - - 149.62° / 157.06 ° - 141 ft / 43 m (AMSL)
34L GS IYQ 111.90 MHz 10 nm / 19 km 330.23° / 337.68 ° 3.00° 141 ft / 43 m (AMSL)
34L MM MM - - 329.62° / 337.06 ° - 141 ft / 43 m (AMSL)
34L DME IYQ 111.90 MHz 18 nm / 33 km - - 153 ft / 47 m (AMSL)
34L LOC-ILS IYQ 111.90 MHz 18 nm / 33 km 329.61° / 337.05 ° - 141 ft / 43 m (AMSL)
34R DME ITJ 110.90 MHz 18 nm / 33 km - - 148 ft / 45 m (AMSL)
34R LOC-ILS ITJ 110.90 MHz 18 nm / 33 km 329.62° / 337.06 ° - 141 ft / 43 m (AMSL)
34R GS ITJ 110.90 MHz 10 nm / 19 km 330.23° / 337.68 ° 3.00° 141 ft / 43 m (AMSL)

Popular Alternatives